Forbes Field Topeka US
ICAO: KFOE
IATA: FOE
Category: Medium
Scheduled Services: No

Elevation: 1078 ft
TransAlt. 18000 ft.

Airport Communications:
KANSAS CITY CNTR:123.8
ATIS:128.25
CTAF:120.8
GND:121.7
ARNG OPS:41.7
ANG OPS:28.65
WICHITA RDO:122.45
TWR:120.8
UNICOM:122.95

KFOE Zoom In..

If you have problems with the map follow the link
https://www.worldairports.se/pages/airport.php?
ICAO=KFOE

Runways:

(A) RW 03 length 7001 ft width 150 ft
---- / hdg 35

(B) RW 13 length 12803 ft width 200 ft
---- / hdg 132

(C) RW 21 length 7001 ft width 150 ft
---- / hdg 215

(D) RW 31 length 12803 ft width 200 ft
ILS 110.10 / hdg 312

Location; KFOE
Day. 22 / Time. 13.13 Zulu
* Altimeter: 29.98
* Temperature: 01° c. 33.8°f.
* Wind from: 160° Speed 12 kn.
Dewpoint: -01° c.
Visibility: 5 Statute Miles.
Clouds: Overcast 600 ft.
Conditions: Light Snow.Conditions: Mist.

KFOE 221313Z 16012KT 5SM -SN BR OVC006 01/M01 A2998 RMK AO2 CIG 004V009 P0001 T00061006


Wind From 160°
Speed 12 kn.

 
 
jpsmedia worldairports.se 2020   terms of use